sensor_id;sensor_type;location;lat;lon;timestamp;P1;durP1;ratioP1;P2;durP2;ratioP2
5704;SDS011;2877;48.238;11.160;2023-02-28T00:00:06;1.63;;;1.53;;
5704;SDS011;2877;48.238;11.160;2023-02-28T00:02:35;1.70;;;1.60;;
5704;SDS011;2877;48.238;11.160;2023-02-28T00:05:10;3.00;;;2.30;;
5704;SDS011;2877;48.238;11.160;2023-02-28T00:07:38;2.27;;;2.13;;
5704;SDS011;2877;48.238;11.160;2023-02-28T00:10:06;1.73;;;1.63;;
5704;SDS011;2877;48.238;11.160;2023-02-28T00:12:34;5.43;;;1.73;;
5704;SDS011;2877;48.238;11.160;2023-02-28T00:15:01;2.00;;;1.80;;
5704;SDS011;2877;48.238;11.160;2023-02-28T00:17:30;2.57;;;2.13;;
5704;SDS011;2877;48.238;11.160;2023-02-28T00:19:55;2.90;;;2.20;;
5704;SDS011;2877;48.238;11.160;2023-02-28T00:22:21;2.87;;;1.77;;
5704;SDS011;2877;48.238;11.160;2023-02-28T00:24:47;1.93;;;1.83;;
5704;SDS011;2877;48.238;11.160;2023-02-28T00:27:13;3.23;;;1.87;;
5704;SDS011;2877;48.238;11.160;2023-02-28T00:29:39;2.37;;;2.17;;
5704;SDS011;2877;48.238;11.160;2023-02-28T00:32:05;2.00;;;1.90;;
5704;SDS011;2877;48.238;11.160;2023-02-28T00:34:31;3.03;;;2.20;;
5704;SDS011;2877;48.238;11.160;2023-02-28T00:37:02;2.73;;;2.20;;
5704;SDS011;2877;48.238;11.160;2023-02-28T00:39:33;2.10;;;2.00;;
5704;SDS011;2877;48.238;11.160;2023-02-28T00:41:59;2.60;;;2.40;;
5704;SDS011;2877;48.238;11.160;2023-02-28T00:44:24;2.93;;;2.27;;
5704;SDS011;2877;48.238;11.160;2023-02-28T00:46:50;2.73;;;2.50;;
5704;SDS011;2877;48.238;11.160;2023-02-28T00:49:16;2.60;;;1.93;;
5704;SDS011;2877;48.238;11.160;2023-02-28T00:51:42;2.27;;;2.07;;
5704;SDS011;2877;48.238;11.160;2023-02-28T00:54:08;2.87;;;2.50;;
5704;SDS011;2877;48.238;11.160;2023-02-28T00:56:33;3.23;;;2.23;;
5704;SDS011;2877;48.238;11.160;2023-02-28T00:58:59;3.70;;;2.30;;
5704;SDS011;2877;48.238;11.160;2023-02-28T01:01:24;3.57;;;2.53;;
5704;SDS011;2877;48.238;11.160;2023-02-28T01:03:50;2.60;;;2.30;;
5704;SDS011;2877;48.238;11.160;2023-02-28T01:06:15;2.73;;;2.20;;
5704;SDS011;2877;48.238;11.160;2023-02-28T01:08:41;4.10;;;2.70;;
5704;SDS011;2877;48.238;11.160;2023-02-28T01:11:07;3.30;;;2.33;;
5704;SDS011;2877;48.238;11.160;2023-02-28T01:13:37;2.53;;;2.13;;
5704;SDS011;2877;48.238;11.160;2023-02-28T01:16:03;4.93;;;1.83;;
5704;SDS011;2877;48.238;11.160;2023-02-28T01:18:29;2.43;;;2.23;;
5704;SDS011;2877;48.238;11.160;2023-02-28T01:20:55;2.20;;;1.97;;
5704;SDS011;2877;48.238;11.160;2023-02-28T01:23:21;2.83;;;2.53;;
5704;SDS011;2877;48.238;11.160;2023-02-28T01:25:48;2.80;;;2.10;;
5704;SDS011;2877;48.238;11.160;2023-02-28T01:28:14;2.43;;;2.13;;
5704;SDS011;2877;48.238;11.160;2023-02-28T01:30:40;2.13;;;1.93;;
5704;SDS011;2877;48.238;11.160;2023-02-28T01:33:05;2.00;;;1.90;;
5704;SDS011;2877;48.238;11.160;2023-02-28T01:35:34;2.13;;;2.03;;
5704;SDS011;2877;48.238;11.160;2023-02-28T01:38:00;2.90;;;2.60;;
5704;SDS011;2877;48.238;11.160;2023-02-28T01:40:27;2.63;;;2.00;;
5704;SDS011;2877;48.238;11.160;2023-02-28T01:42:52;2.63;;;2.43;;
5704;SDS011;2877;48.238;11.160;2023-02-28T01:45:19;2.50;;;2.30;;
5704;SDS011;2877;48.238;11.160;2023-02-28T01:47:51;3.30;;;2.30;;
5704;SDS011;2877;48.238;11.160;2023-02-28T01:50:21;3.40;;;2.50;;
5704;SDS011;2877;48.238;11.160;2023-02-28T01:52:50;6.50;;;2.20;;
5704;SDS011;2877;48.238;11.160;2023-02-28T01:55:19;2.47;;;2.27;;
5704;SDS011;2877;48.238;11.160;2023-02-28T01:57:48;2.00;;;1.80;;
5704;SDS011;2877;48.238;11.160;2023-02-28T02:00:18;2.67;;;2.30;;
5704;SDS011;2877;48.238;11.160;2023-02-28T02:02:48;1.90;;;1.80;;
5704;SDS011;2877;48.238;11.160;2023-02-28T02:05:19;4.07;;;2.70;;
5704;SDS011;2877;48.238;11.160;2023-02-28T02:07:50;4.80;;;2.30;;
5704;SDS011;2877;48.238;11.160;2023-02-28T02:10:20;2.17;;;1.80;;
5704;SDS011;2877;48.238;11.160;2023-02-28T02:12:56;4.20;;;2.97;;
5704;SDS011;2877;48.238;11.160;2023-02-28T02:15:32;2.80;;;2.60;;
5704;SDS011;2877;48.238;11.160;2023-02-28T02:18:28;3.30;;;2.57;;
5704;SDS011;2877;48.238;11.160;2023-02-28T02:29:59;2.70;;;2.13;;
5704;SDS011;2877;48.238;11.160;2023-02-28T02:35:32;2.43;;;2.10;;
5704;SDS011;2877;48.238;11.160;2023-02-28T02:38:08;7.50;;;1.93;;
5704;SDS011;2877;48.238;11.160;2023-02-28T02:40:56;2.63;;;2.13;;
5704;SDS011;2877;48.238;11.160;2023-02-28T02:49:13;2.40;;;2.20;;
5704;SDS011;2877;48.238;11.160;2023-02-28T02:51:46;3.63;;;2.23;;
5704;SDS011;2877;48.238;11.160;2023-02-28T02:54:46;3.70;;;2.63;;
5704;SDS011;2877;48.238;11.160;2023-02-28T02:57:17;3.53;;;2.60;;
5704;SDS011;2877;48.238;11.160;2023-02-28T02:59:48;2.60;;;2.30;;
5704;SDS011;2877;48.238;11.160;2023-02-28T03:02:15;3.50;;;2.60;;
5704;SDS011;2877;48.238;11.160;2023-02-28T03:04:43;3.40;;;2.63;;
5704;SDS011;2877;48.238;11.160;2023-02-28T03:07:13;4.20;;;2.87;;
5704;SDS011;2877;48.238;11.160;2023-02-28T03:09:39;3.83;;;2.93;;
5704;SDS011;2877;48.238;11.160;2023-02-28T03:12:04;3.20;;;2.90;;
5704;SDS011;2877;48.238;11.160;2023-02-28T03:14:50;7.50;;;3.33;;
5704;SDS011;2877;48.238;11.160;2023-02-28T03:17:27;4.50;;;2.67;;
5704;SDS011;2877;48.238;11.160;2023-02-28T03:20:04;3.90;;;2.73;;
5704;SDS011;2877;48.238;11.160;2023-02-28T03:22:45;2.57;;;2.37;;
5704;SDS011;2877;48.238;11.160;2023-02-28T03:25:19;3.13;;;2.43;;
5704;SDS011;2877;48.238;11.160;2023-02-28T03:28:03;3.13;;;2.80;;
5704;SDS011;2877;48.238;11.160;2023-02-28T03:30:36;3.23;;;2.63;;
5704;SDS011;2877;48.238;11.160;2023-02-28T03:33:18;3.87;;;2.90;;
5704;SDS011;2877;48.238;11.160;2023-02-28T03:35:48;7.80;;;3.27;;
5704;SDS011;2877;48.238;11.160;2023-02-28T03:38:23;3.60;;;2.90;;
5704;SDS011;2877;48.238;11.160;2023-02-28T03:41:02;2.73;;;2.50;;
5704;SDS011;2877;48.238;11.160;2023-02-28T03:43:43;3.43;;;3.13;;
5704;SDS011;2877;48.238;11.160;2023-02-28T03:46:14;3.80;;;2.60;;
5704;SDS011;2877;48.238;11.160;2023-02-28T03:48:48;4.23;;;3.40;;
5704;SDS011;2877;48.238;11.160;2023-02-28T03:51:20;3.40;;;3.10;;
5704;SDS011;2877;48.238;11.160;2023-02-28T03:53:59;3.33;;;2.67;;
5704;SDS011;2877;48.238;11.160;2023-02-28T03:56:33;3.40;;;3.10;;
5704;SDS011;2877;48.238;11.160;2023-02-28T03:59:18;3.73;;;3.40;;
5704;SDS011;2877;48.238;11.160;2023-02-28T04:01:45;3.27;;;2.90;;
5704;SDS011;2877;48.238;11.160;2023-02-28T04:04:12;4.37;;;3.50;;
5704;SDS011;2877;48.238;11.160;2023-02-28T04:06:39;4.27;;;3.60;;
5704;SDS011;2877;48.238;11.160;2023-02-28T04:09:05;7.70;;;3.77;;
5704;SDS011;2877;48.238;11.160;2023-02-28T04:14:09;3.63;;;2.90;;
5704;SDS011;2877;48.238;11.160;2023-02-28T04:16:36;5.00;;;4.00;;
5704;SDS011;2877;48.238;11.160;2023-02-28T04:19:03;6.17;;;3.77;;
5704;SDS011;2877;48.238;11.160;2023-02-28T04:21:31;3.70;;;3.03;;
5704;SDS011;2877;48.238;11.160;2023-02-28T04:23:58;4.67;;;3.83;;
5704;SDS011;2877;48.238;11.160;2023-02-28T04:26:27;4.97;;;4.00;;
5704;SDS011;2877;48.238;11.160;2023-02-28T04:28:54;5.17;;;4.07;;
5704;SDS011;2877;48.238;11.160;2023-02-28T04:31:20;4.53;;;3.33;;
5704;SDS011;2877;48.238;11.160;2023-02-28T04:33:46;4.90;;;3.63;;
5704;SDS011;2877;48.238;11.160;2023-02-28T04:36:11;5.37;;;3.80;;
5704;SDS011;2877;48.238;11.160;2023-02-28T04:38:38;5.80;;;3.90;;
5704;SDS011;2877;48.238;11.160;2023-02-28T04:41:04;5.43;;;3.60;;
5704;SDS011;2877;48.238;11.160;2023-02-28T04:43:30;5.33;;;4.13;;
5704;SDS011;2877;48.238;11.160;2023-02-28T04:45:56;8.40;;;5.37;;
5704;SDS011;2877;48.238;11.160;2023-02-28T04:48:27;6.57;;;4.40;;
5704;SDS011;2877;48.238;11.160;2023-02-28T04:50:53;10.80;;;4.67;;
5704;SDS011;2877;48.238;11.160;2023-02-28T04:53:18;6.40;;;4.23;;
5704;SDS011;2877;48.238;11.160;2023-02-28T04:55:44;5.10;;;3.57;;
5704;SDS011;2877;48.238;11.160;2023-02-28T04:58:10;6.87;;;4.93;;
5704;SDS011;2877;48.238;11.160;2023-02-28T05:00:36;7.90;;;4.90;;
5704;SDS011;2877;48.238;11.160;2023-02-28T05:03:02;6.33;;;4.30;;
5704;SDS011;2877;48.238;11.160;2023-02-28T05:05:27;5.77;;;4.30;;
5704;SDS011;2877;48.238;11.160;2023-02-28T05:07:53;6.40;;;3.97;;
5704;SDS011;2877;48.238;11.160;2023-02-28T05:10:20;7.30;;;5.00;;
5704;SDS011;2877;48.238;11.160;2023-02-28T05:12:46;6.27;;;4.67;;
5704;SDS011;2877;48.238;11.160;2023-02-28T05:15:13;7.80;;;5.10;;
5704;SDS011;2877;48.238;11.160;2023-02-28T05:17:40;9.30;;;5.20;;
5704;SDS011;2877;48.238;11.160;2023-02-28T05:20:06;6.90;;;5.03;;
5704;SDS011;2877;48.238;11.160;2023-02-28T05:22:35;7.07;;;5.20;;
5704;SDS011;2877;48.238;11.160;2023-02-28T05:25:02;10.43;;;5.50;;
5704;SDS011;2877;48.238;11.160;2023-02-28T05:27:29;9.20;;;5.47;;
5704;SDS011;2877;48.238;11.160;2023-02-28T05:29:54;5.30;;;4.50;;
5704;SDS011;2877;48.238;11.160;2023-02-28T05:32:20;8.53;;;5.50;;
5704;SDS011;2877;48.238;11.160;2023-02-28T05:34:45;5.87;;;5.03;;
5704;SDS011;2877;48.238;11.160;2023-02-28T05:37:12;6.00;;;4.57;;
5704;SDS011;2877;48.238;11.160;2023-02-28T05:39:38;7.83;;;5.60;;
5704;SDS011;2877;48.238;11.160;2023-02-28T05:42:04;9.40;;;5.70;;
5704;SDS011;2877;48.238;11.160;2023-02-28T05:44:30;6.00;;;4.20;;
5704;SDS011;2877;48.238;11.160;2023-02-28T05:46:55;8.07;;;5.53;;
5704;SDS011;2877;48.238;11.160;2023-02-28T05:49:21;9.00;;;5.73;;
5704;SDS011;2877;48.238;11.160;2023-02-28T05:51:47;8.17;;;4.83;;
5704;SDS011;2877;48.238;11.160;2023-02-28T05:54:12;7.43;;;6.10;;
5704;SDS011;2877;48.238;11.160;2023-02-28T05:56:38;8.63;;;5.80;;
5704;SDS011;2877;48.238;11.160;2023-02-28T05:59:05;7.93;;;5.40;;
5704;SDS011;2877;48.238;11.160;2023-02-28T06:01:32;6.90;;;5.03;;
5704;SDS011;2877;48.238;11.160;2023-02-28T06:03:59;8.80;;;5.63;;
5704;SDS011;2877;48.238;11.160;2023-02-28T06:06:26;8.80;;;5.73;;
5704;SDS011;2877;48.238;11.160;2023-02-28T06:08:52;10.73;;;6.13;;
5704;SDS011;2877;48.238;11.160;2023-02-28T06:11:17;9.27;;;6.50;;
5704;SDS011;2877;48.238;11.160;2023-02-28T06:13:44;8.20;;;5.53;;
5704;SDS011;2877;48.238;11.160;2023-02-28T06:16:10;9.70;;;5.37;;
5704;SDS011;2877;48.238;11.160;2023-02-28T06:18:36;10.63;;;6.00;;
5704;SDS011;2877;48.238;11.160;2023-02-28T06:21:02;8.87;;;5.73;;
5704;SDS011;2877;48.238;11.160;2023-02-28T06:23:28;12.50;;;6.60;;
5704;SDS011;2877;48.238;11.160;2023-02-28T06:25:54;8.53;;;6.17;;
5704;SDS011;2877;48.238;11.160;2023-02-28T06:28:23;9.80;;;5.90;;
5704;SDS011;2877;48.238;11.160;2023-02-28T06:30:49;9.80;;;6.53;;
5704;SDS011;2877;48.238;11.160;2023-02-28T06:33:14;8.60;;;5.80;;
5704;SDS011;2877;48.238;11.160;2023-02-28T06:35:43;11.63;;;6.50;;
5704;SDS011;2877;48.238;11.160;2023-02-28T06:38:09;10.57;;;7.37;;
5704;SDS011;2877;48.238;11.160;2023-02-28T06:40:35;9.27;;;6.70;;
5704;SDS011;2877;48.238;11.160;2023-02-28T06:43:02;9.53;;;6.80;;
5704;SDS011;2877;48.238;11.160;2023-02-28T06:45:28;11.50;;;6.27;;
5704;SDS011;2877;48.238;11.160;2023-02-28T06:47:53;9.13;;;6.67;;
5704;SDS011;2877;48.238;11.160;2023-02-28T06:50:19;10.20;;;6.13;;
5704;SDS011;2877;48.238;11.160;2023-02-28T06:52:45;10.47;;;6.00;;
5704;SDS011;2877;48.238;11.160;2023-02-28T06:55:11;8.73;;;6.60;;
5704;SDS011;2877;48.238;11.160;2023-02-28T06:57:36;10.10;;;6.37;;
5704;SDS011;2877;48.238;11.160;2023-02-28T07:00:06;8.60;;;5.90;;
5704;SDS011;2877;48.238;11.160;2023-02-28T07:02:33;10.60;;;6.90;;
5704;SDS011;2877;48.238;11.160;2023-02-28T07:05:00;9.43;;;6.70;;
5704;SDS011;2877;48.238;11.160;2023-02-28T07:07:25;9.53;;;6.30;;
5704;SDS011;2877;48.238;11.160;2023-02-28T07:09:51;15.23;;;6.80;;
5704;SDS011;2877;48.238;11.160;2023-02-28T07:12:16;9.30;;;6.93;;
5704;SDS011;2877;48.238;11.160;2023-02-28T07:14:42;9.60;;;6.70;;
5704;SDS011;2877;48.238;11.160;2023-02-28T07:17:08;10.47;;;7.93;;
5704;SDS011;2877;48.238;11.160;2023-02-28T07:19:35;11.83;;;6.93;;
5704;SDS011;2877;48.238;11.160;2023-02-28T07:22:01;9.03;;;6.80;;
5704;SDS011;2877;48.238;11.160;2023-02-28T07:24:27;10.20;;;6.17;;
5704;SDS011;2877;48.238;11.160;2023-02-28T07:26:54;11.50;;;7.10;;
5704;SDS011;2877;48.238;11.160;2023-02-28T07:29:20;9.53;;;6.73;;
5704;SDS011;2877;48.238;11.160;2023-02-28T07:31:46;11.73;;;6.60;;
5704;SDS011;2877;48.238;11.160;2023-02-28T07:34:11;10.60;;;7.20;;
5704;SDS011;2877;48.238;11.160;2023-02-28T07:36:37;11.17;;;7.20;;
5704;SDS011;2877;48.238;11.160;2023-02-28T07:39:03;10.00;;;6.87;;
5704;SDS011;2877;48.238;11.160;2023-02-28T07:41:29;11.60;;;7.13;;
5704;SDS011;2877;48.238;11.160;2023-02-28T07:43:58;11.80;;;7.83;;
5704;SDS011;2877;48.238;11.160;2023-02-28T07:46:24;10.20;;;7.23;;
5704;SDS011;2877;48.238;11.160;2023-02-28T07:48:51;9.20;;;6.43;;
5704;SDS011;2877;48.238;11.160;2023-02-28T07:51:18;11.00;;;6.90;;
5704;SDS011;2877;48.238;11.160;2023-02-28T07:53:44;9.60;;;6.93;;
5704;SDS011;2877;48.238;11.160;2023-02-28T07:56:09;11.47;;;6.90;;
5704;SDS011;2877;48.238;11.160;2023-02-28T07:58:35;13.23;;;7.70;;
5704;SDS011;2877;48.238;11.160;2023-02-28T08:01:08;11.90;;;7.07;;
5704;SDS011;2877;48.238;11.160;2023-02-28T08:03:34;9.57;;;6.90;;
5704;SDS011;2877;48.238;11.160;2023-02-28T08:06:01;10.97;;;7.17;;
5704;SDS011;2877;48.238;11.160;2023-02-28T08:08:27;11.53;;;7.80;;
5704;SDS011;2877;48.238;11.160;2023-02-28T08:10:57;12.00;;;8.10;;
5704;SDS011;2877;48.238;11.160;2023-02-28T08:13:25;11.00;;;6.87;;
5704;SDS011;2877;48.238;11.160;2023-02-28T08:15:52;11.90;;;7.43;;
5704;SDS011;2877;48.238;11.160;2023-02-28T08:18:18;11.80;;;7.50;;
5704;SDS011;2877;48.238;11.160;2023-02-28T08:20:44;10.20;;;6.60;;
5704;SDS011;2877;48.238;11.160;2023-02-28T08:23:09;11.23;;;7.50;;
5704;SDS011;2877;48.238;11.160;2023-02-28T08:25:35;9.93;;;6.60;;
5704;SDS011;2877;48.238;11.160;2023-02-28T08:28:00;8.47;;;6.90;;
5704;SDS011;2877;48.238;11.160;2023-02-28T08:30:26;13.40;;;7.70;;
5704;SDS011;2877;48.238;11.160;2023-02-28T08:32:51;12.20;;;7.63;;
5704;SDS011;2877;48.238;11.160;2023-02-28T08:35:17;10.17;;;6.97;;
5704;SDS011;2877;48.238;11.160;2023-02-28T08:37:42;9.93;;;6.77;;
5704;SDS011;2877;48.238;11.160;2023-02-28T08:40:08;10.10;;;7.10;;
5704;SDS011;2877;48.238;11.160;2023-02-28T08:42:34;11.80;;;7.70;;
5704;SDS011;2877;48.238;11.160;2023-02-28T08:45:00;10.90;;;7.50;;
5704;SDS011;2877;48.238;11.160;2023-02-28T08:47:26;12.07;;;8.10;;
5704;SDS011;2877;48.238;11.160;2023-02-28T08:49:51;12.17;;;7.40;;
5704;SDS011;2877;48.238;11.160;2023-02-28T08:52:17;10.53;;;7.40;;
5704;SDS011;2877;48.238;11.160;2023-02-28T08:54:42;11.37;;;7.73;;
5704;SDS011;2877;48.238;11.160;2023-02-28T08:57:08;9.60;;;7.23;;
5704;SDS011;2877;48.238;11.160;2023-02-28T08:59:33;11.47;;;7.27;;
5704;SDS011;2877;48.238;11.160;2023-02-28T09:01:59;11.03;;;7.77;;
5704;SDS011;2877;48.238;11.160;2023-02-28T09:04:24;10.40;;;7.07;;
5704;SDS011;2877;48.238;11.160;2023-02-28T09:06:50;9.37;;;7.03;;
5704;SDS011;2877;48.238;11.160;2023-02-28T09:09:16;8.60;;;5.07;;
5704;SDS011;2877;48.238;11.160;2023-02-28T09:11:41;12.20;;;7.73;;
5704;SDS011;2877;48.238;11.160;2023-02-28T09:14:07;10.27;;;7.87;;
5704;SDS011;2877;48.238;11.160;2023-02-28T09:16:32;12.03;;;7.67;;
5704;SDS011;2877;48.238;11.160;2023-02-28T09:18:58;16.60;;;7.50;;
5704;SDS011;2877;48.238;11.160;2023-02-28T09:21:24;8.63;;;6.70;;
5704;SDS011;2877;48.238;11.160;2023-02-28T09:23:50;16.10;;;8.93;;
5704;SDS011;2877;48.238;11.160;2023-02-28T09:26:34;8.47;;;7.10;;
5704;SDS011;2877;48.238;11.160;2023-02-28T09:29:00;10.53;;;7.57;;
5704;SDS011;2877;48.238;11.160;2023-02-28T09:31:27;12.10;;;8.00;;
5704;SDS011;2877;48.238;11.160;2023-02-28T09:33:55;8.93;;;6.70;;
5704;SDS011;2877;48.238;11.160;2023-02-28T09:36:22;9.83;;;7.00;;
5704;SDS011;2877;48.238;11.160;2023-02-28T09:38:49;10.23;;;7.13;;
5704;SDS011;2877;48.238;11.160;2023-02-28T09:41:21;10.87;;;7.77;;
5704;SDS011;2877;48.238;11.160;2023-02-28T09:43:54;16.63;;;8.77;;
5704;SDS011;2877;48.238;11.160;2023-02-28T09:46:34;11.73;;;8.00;;
5704;SDS011;2877;48.238;11.160;2023-02-28T09:49:06;9.77;;;7.53;;
5704;SDS011;2877;48.238;11.160;2023-02-28T09:54:32;9.77;;;7.67;;
5704;SDS011;2877;48.238;11.160;2023-02-28T09:57:08;9.47;;;7.43;;
5704;SDS011;2877;48.238;11.160;2023-02-28T10:05:11;8.90;;;7.10;;
5704;SDS011;2877;48.238;11.160;2023-02-28T10:10:21;10.53;;;7.30;;
5704;SDS011;2877;48.238;11.160;2023-02-28T10:12:52;12.10;;;7.20;;
5704;SDS011;2877;48.238;11.160;2023-02-28T10:15:19;13.67;;;7.60;;
5704;SDS011;2877;48.238;11.160;2023-02-28T10:17:49;10.17;;;7.77;;
5704;SDS011;2877;48.238;11.160;2023-02-28T10:20:20;11.90;;;7.70;;
5704;SDS011;2877;48.238;11.160;2023-02-28T10:22:53;12.90;;;8.90;;
5704;SDS011;2877;48.238;11.160;2023-02-28T10:25:38;12.30;;;8.27;;
5704;SDS011;2877;48.238;11.160;2023-02-28T10:28:14;13.40;;;8.03;;
5704;SDS011;2877;48.238;11.160;2023-02-28T10:30:43;13.30;;;8.17;;
5704;SDS011;2877;48.238;11.160;2023-02-28T10:33:19;9.37;;;7.13;;
5704;SDS011;2877;48.238;11.160;2023-02-28T10:35:56;10.87;;;7.13;;
5704;SDS011;2877;48.238;11.160;2023-02-28T10:38:43;11.10;;;8.23;;
5704;SDS011;2877;48.238;11.160;2023-02-28T10:41:10;11.57;;;8.17;;
5704;SDS011;2877;48.238;11.160;2023-02-28T10:43:39;9.83;;;7.27;;
5704;SDS011;2877;48.238;11.160;2023-02-28T10:48:36;9.40;;;7.80;;
5704;SDS011;2877;48.238;11.160;2023-02-28T10:51:08;10.27;;;7.53;;
5704;SDS011;2877;48.238;11.160;2023-02-28T10:53:48;11.20;;;7.57;;
5704;SDS011;2877;48.238;11.160;2023-02-28T10:58:51;10.23;;;7.77;;
5704;SDS011;2877;48.238;11.160;2023-02-28T11:03:46;12.00;;;8.30;;
5704;SDS011;2877;48.238;11.160;2023-02-28T11:06:14;11.77;;;7.53;;
5704;SDS011;2877;48.238;11.160;2023-02-28T11:08:44;11.57;;;7.67;;
5704;SDS011;2877;48.238;11.160;2023-02-28T11:11:13;10.50;;;7.90;;
5704;SDS011;2877;48.238;11.160;2023-02-28T11:13:39;11.13;;;7.73;;
5704;SDS011;2877;48.238;11.160;2023-02-28T11:16:05;14.03;;;8.30;;
5704;SDS011;2877;48.238;11.160;2023-02-28T11:18:37;14.13;;;7.33;;
5704;SDS011;2877;48.238;11.160;2023-02-28T11:21:15;10.07;;;7.67;;
5704;SDS011;2877;48.238;11.160;2023-02-28T11:23:44;11.17;;;8.20;;
5704;SDS011;2877;48.238;11.160;2023-02-28T11:26:10;10.40;;;7.60;;
5704;SDS011;2877;48.238;11.160;2023-02-28T11:28:39;9.17;;;7.10;;
5704;SDS011;2877;48.238;11.160;2023-02-28T11:38:49;10.10;;;7.53;;
5704;SDS011;2877;48.238;11.160;2023-02-28T11:41:21;10.63;;;7.70;;
5704;SDS011;2877;48.238;11.160;2023-02-28T11:46:41;10.70;;;8.10;;
5704;SDS011;2877;48.238;11.160;2023-02-28T11:57:48;10.30;;;7.50;;
5704;SDS011;2877;48.238;11.160;2023-02-28T12:08:57;11.70;;;7.80;;
5704;SDS011;2877;48.238;11.160;2023-02-28T12:11:44;9.33;;;7.33;;
5704;SDS011;2877;48.238;11.160;2023-02-28T12:27:46;9.37;;;7.57;;
5704;SDS011;2877;48.238;11.160;2023-02-28T12:30:15;11.90;;;7.53;;
5704;SDS011;2877;48.238;11.160;2023-02-28T12:32:44;10.80;;;8.20;;
5704;SDS011;2877;48.238;11.160;2023-02-28T12:35:14;10.23;;;7.07;;
5704;SDS011;2877;48.238;11.160;2023-02-28T12:37:47;9.03;;;6.90;;
5704;SDS011;2877;48.238;11.160;2023-02-28T12:40:22;9.60;;;7.63;;
5704;SDS011;2877;48.238;11.160;2023-02-28T12:42:58;11.10;;;8.47;;
5704;SDS011;2877;48.238;11.160;2023-02-28T12:45:40;9.93;;;6.90;;
5704;SDS011;2877;48.238;11.160;2023-02-28T12:48:08;9.70;;;7.00;;
5704;SDS011;2877;48.238;11.160;2023-02-28T12:50:39;8.93;;;7.10;;
5704;SDS011;2877;48.238;11.160;2023-02-28T12:53:06;8.90;;;7.00;;
5704;SDS011;2877;48.238;11.160;2023-02-28T12:55:46;14.07;;;8.10;;
5704;SDS011;2877;48.238;11.160;2023-02-28T12:58:20;11.57;;;8.07;;
5704;SDS011;2877;48.238;11.160;2023-02-28T13:03:45;9.97;;;7.27;;
5704;SDS011;2877;48.238;11.160;2023-02-28T13:09:13;10.43;;;7.30;;
5704;SDS011;2877;48.238;11.160;2023-02-28T13:14:24;10.53;;;6.90;;
5704;SDS011;2877;48.238;11.160;2023-02-28T13:17:10;10.43;;;6.77;;
5704;SDS011;2877;48.238;11.160;2023-02-28T13:25:00;10.20;;;7.60;;
5704;SDS011;2877;48.238;11.160;2023-02-28T13:27:32;13.13;;;7.43;;
5704;SDS011;2877;48.238;11.160;2023-02-28T13:29:59;8.33;;;6.77;;
5704;SDS011;2877;48.238;11.160;2023-02-28T13:39:54;10.30;;;7.60;;
5704;SDS011;2877;48.238;11.160;2023-02-28T13:47:30;9.53;;;6.90;;
5704;SDS011;2877;48.238;11.160;2023-02-28T13:58:35;9.73;;;7.60;;
5704;SDS011;2877;48.238;11.160;2023-02-28T14:01:25;11.90;;;8.20;;
5704;SDS011;2877;48.238;11.160;2023-02-28T14:06:54;10.27;;;7.63;;
5704;SDS011;2877;48.238;11.160;2023-02-28T14:09:32;10.20;;;7.83;;
5704;SDS011;2877;48.238;11.160;2023-02-28T14:15:04;9.97;;;7.43;;
5704;SDS011;2877;48.238;11.160;2023-02-28T14:17:51;10.03;;;7.20;;
5704;SDS011;2877;48.238;11.160;2023-02-28T14:20:18;10.40;;;7.93;;
5704;SDS011;2877;48.238;11.160;2023-02-28T14:25:33;11.13;;;8.27;;
5704;SDS011;2877;48.238;11.160;2023-02-28T14:31:25;11.03;;;7.53;;
5704;SDS011;2877;48.238;11.160;2023-02-28T14:33:59;9.90;;;7.30;;
5704;SDS011;2877;48.238;11.160;2023-02-28T14:36:42;11.40;;;7.57;;
5704;SDS011;2877;48.238;11.160;2023-02-28T14:39:20;11.70;;;7.07;;
5704;SDS011;2877;48.238;11.160;2023-02-28T14:41:48;9.10;;;7.27;;
5704;SDS011;2877;48.238;11.160;2023-02-28T14:44:18;9.93;;;7.10;;
5704;SDS011;2877;48.238;11.160;2023-02-28T14:46:57;8.63;;;6.67;;
5704;SDS011;2877;48.238;11.160;2023-02-28T14:49:34;9.40;;;7.50;;
5704;SDS011;2877;48.238;11.160;2023-02-28T14:52:17;11.93;;;7.30;;
5704;SDS011;2877;48.238;11.160;2023-02-28T14:54:59;8.63;;;6.80;;
5704;SDS011;2877;48.238;11.160;2023-02-28T14:57:31;10.27;;;7.20;;
5704;SDS011;2877;48.238;11.160;2023-02-28T15:02:46;9.80;;;7.33;;
5704;SDS011;2877;48.238;11.160;2023-02-28T15:07:37;9.37;;;7.03;;
5704;SDS011;2877;48.238;11.160;2023-02-28T15:10:07;10.80;;;7.10;;
5704;SDS011;2877;48.238;11.160;2023-02-28T15:12:44;10.13;;;6.67;;
5704;SDS011;2877;48.238;11.160;2023-02-28T15:15:21;8.23;;;6.50;;
5704;SDS011;2877;48.238;11.160;2023-02-28T15:18:06;9.80;;;7.67;;
5704;SDS011;2877;48.238;11.160;2023-02-28T15:20:38;10.33;;;7.40;;
5704;SDS011;2877;48.238;11.160;2023-02-28T15:23:06;11.63;;;8.03;;
5704;SDS011;2877;48.238;11.160;2023-02-28T15:25:32;10.37;;;7.33;;
5704;SDS011;2877;48.238;11.160;2023-02-28T15:27:57;9.00;;;6.67;;
5704;SDS011;2877;48.238;11.160;2023-02-28T15:30:30;8.83;;;7.03;;
5704;SDS011;2877;48.238;11.160;2023-02-28T15:33:17;10.60;;;7.13;;
5704;SDS011;2877;48.238;11.160;2023-02-28T15:35:48;8.77;;;6.70;;
5704;SDS011;2877;48.238;11.160;2023-02-28T15:38:16;9.03;;;6.57;;
5704;SDS011;2877;48.238;11.160;2023-02-28T15:40:51;11.10;;;7.37;;
5704;SDS011;2877;48.238;11.160;2023-02-28T15:43:25;11.33;;;7.40;;
5704;SDS011;2877;48.238;11.160;2023-02-28T15:48:27;10.40;;;7.30;;
5704;SDS011;2877;48.238;11.160;2023-02-28T15:53:38;10.57;;;6.93;;
5704;SDS011;2877;48.238;11.160;2023-02-28T15:56:27;8.27;;;6.40;;
5704;SDS011;2877;48.238;11.160;2023-02-28T15:58:55;9.90;;;6.57;;
5704;SDS011;2877;48.238;11.160;2023-02-28T16:01:29;10.40;;;7.20;;
5704;SDS011;2877;48.238;11.160;2023-02-28T16:03:59;10.40;;;7.73;;
5704;SDS011;2877;48.238;11.160;2023-02-28T16:06:41;11.83;;;6.87;;
5704;SDS011;2877;48.238;11.160;2023-02-28T16:09:09;10.33;;;7.60;;
5704;SDS011;2877;48.238;11.160;2023-02-28T16:11:43;11.40;;;7.90;;
5704;SDS011;2877;48.238;11.160;2023-02-28T16:14:16;13.63;;;7.73;;
5704;SDS011;2877;48.238;11.160;2023-02-28T16:16:48;11.77;;;8.13;;
5704;SDS011;2877;48.238;11.160;2023-02-28T16:19:16;9.67;;;6.90;;
5704;SDS011;2877;48.238;11.160;2023-02-28T16:21:42;11.60;;;7.90;;
5704;SDS011;2877;48.238;11.160;2023-02-28T16:24:08;11.33;;;7.70;;
5704;SDS011;2877;48.238;11.160;2023-02-28T16:26:33;8.50;;;6.70;;
5704;SDS011;2877;48.238;11.160;2023-02-28T16:29:00;9.53;;;7.20;;
5704;SDS011;2877;48.238;11.160;2023-02-28T16:31:27;10.97;;;7.40;;
5704;SDS011;2877;48.238;11.160;2023-02-28T16:33:53;11.37;;;8.00;;
5704;SDS011;2877;48.238;11.160;2023-02-28T16:36:20;11.70;;;8.10;;
5704;SDS011;2877;48.238;11.160;2023-02-28T16:38:49;10.77;;;7.93;;
5704;SDS011;2877;48.238;11.160;2023-02-28T16:41:17;11.50;;;8.40;;
5704;SDS011;2877;48.238;11.160;2023-02-28T16:43:45;12.23;;;7.53;;
5704;SDS011;2877;48.238;11.160;2023-02-28T16:46:12;11.50;;;7.63;;
5704;SDS011;2877;48.238;11.160;2023-02-28T16:48:38;9.57;;;7.10;;
5704;SDS011;2877;48.238;11.160;2023-02-28T16:51:05;12.00;;;8.13;;
5704;SDS011;2877;48.238;11.160;2023-02-28T16:53:36;12.17;;;8.07;;
5704;SDS011;2877;48.238;11.160;2023-02-28T16:56:01;9.67;;;7.23;;
5704;SDS011;2877;48.238;11.160;2023-02-28T16:58:27;10.30;;;7.70;;
5704;SDS011;2877;48.238;11.160;2023-02-28T17:00:53;11.20;;;8.33;;
5704;SDS011;2877;48.238;11.160;2023-02-28T17:03:21;12.87;;;8.13;;
5704;SDS011;2877;48.238;11.160;2023-02-28T17:05:50;12.20;;;7.60;;
5704;SDS011;2877;48.238;11.160;2023-02-28T17:08:15;11.47;;;7.83;;
5704;SDS011;2877;48.238;11.160;2023-02-28T17:10:41;13.63;;;7.70;;
5704;SDS011;2877;48.238;11.160;2023-02-28T17:13:07;13.00;;;7.97;;
5704;SDS011;2877;48.238;11.160;2023-02-28T17:15:33;11.67;;;8.50;;
5704;SDS011;2877;48.238;11.160;2023-02-28T17:17:59;12.30;;;8.40;;
5704;SDS011;2877;48.238;11.160;2023-02-28T17:20:24;12.93;;;8.27;;
5704;SDS011;2877;48.238;11.160;2023-02-28T17:22:51;11.67;;;8.60;;
5704;SDS011;2877;48.238;11.160;2023-02-28T17:25:17;12.00;;;8.37;;